sensor_id;sensor_type;location;lat;lon;timestamp;temperature;humidity
10129;DHT22;5104;50.720;7.044;2022-10-16T00:01:04;13.30;99.90
10129;DHT22;5104;50.720;7.044;2022-10-16T00:03:31;13.30;99.90
10129;DHT22;5104;50.720;7.044;2022-10-16T00:05:59;13.30;99.90
10129;DHT22;5104;50.720;7.044;2022-10-16T00:08:27;13.30;99.90
10129;DHT22;5104;50.720;7.044;2022-10-16T00:10:59;13.30;99.90
10129;DHT22;5104;50.720;7.044;2022-10-16T00:13:26;13.40;99.90
10129;DHT22;5104;50.720;7.044;2022-10-16T00:15:55;13.30;99.90
10129;DHT22;5104;50.720;7.044;2022-10-16T00:18:24;13.40;99.90
10129;DHT22;5104;50.720;7.044;2022-10-16T00:20:51;13.40;99.90
10129;DHT22;5104;50.720;7.044;2022-10-16T00:23:18;13.40;99.90
10129;DHT22;5104;50.720;7.044;2022-10-16T00:25:54;13.40;99.90
10129;DHT22;5104;50.720;7.044;2022-10-16T00:28:21;13.30;99.90
10129;DHT22;5104;50.720;7.044;2022-10-16T00:30:48;13.30;99.90
10129;DHT22;5104;50.720;7.044;2022-10-16T00:33:14;13.40;99.90
10129;DHT22;5104;50.720;7.044;2022-10-16T00:35:43;13.40;99.90
10129;DHT22;5104;50.720;7.044;2022-10-16T00:38:10;13.40;99.90
10129;DHT22;5104;50.720;7.044;2022-10-16T00:40:36;13.40;99.90
10129;DHT22;5104;50.720;7.044;2022-10-16T00:43:12;13.40;99.90
10129;DHT22;5104;50.720;7.044;2022-10-16T00:45:39;13.40;99.90
10129;DHT22;5104;50.720;7.044;2022-10-16T00:48:11;13.40;99.90
10129;DHT22;5104;50.720;7.044;2022-10-16T00:50:39;13.40;99.90
10129;DHT22;5104;50.720;7.044;2022-10-16T00:53:10;13.40;99.90
10129;DHT22;5104;50.720;7.044;2022-10-16T00:55:38;13.40;99.90
10129;DHT22;5104;50.720;7.044;2022-10-16T00:58:05;13.40;99.90
10129;DHT22;5104;50.720;7.044;2022-10-16T01:00:32;13.40;99.90
10129;DHT22;5104;50.720;7.044;2022-10-16T01:03:00;13.40;99.90
10129;DHT22;5104;50.720;7.044;2022-10-16T01:05:37;13.40;99.90
10129;DHT22;5104;50.720;7.044;2022-10-16T01:08:12;13.40;99.90
10129;DHT22;5104;50.720;7.044;2022-10-16T01:10:42;13.40;99.90
10129;DHT22;5104;50.720;7.044;2022-10-16T01:13:17;13.30;99.90
10129;DHT22;5104;50.720;7.044;2022-10-16T01:15:48;13.30;99.90
10129;DHT22;5104;50.720;7.044;2022-10-16T01:18:23;13.30;99.90
10129;DHT22;5104;50.720;7.044;2022-10-16T01:20:55;13.20;99.90
10129;DHT22;5104;50.720;7.044;2022-10-16T01:23:37;13.20;99.90
10129;DHT22;5104;50.720;7.044;2022-10-16T01:26:13;13.10;99.90
10129;DHT22;5104;50.720;7.044;2022-10-16T01:28:47;13.10;99.90
10129;DHT22;5104;50.720;7.044;2022-10-16T01:31:18;13.10;99.90
10129;DHT22;5104;50.720;7.044;2022-10-16T01:33:48;13.00;99.90
10129;DHT22;5104;50.720;7.044;2022-10-16T01:36:23;13.10;99.90
10129;DHT22;5104;50.720;7.044;2022-10-16T01:38:53;13.00;99.90
10129;DHT22;5104;50.720;7.044;2022-10-16T01:41:23;13.00;99.90
10129;DHT22;5104;50.720;7.044;2022-10-16T01:43:59;12.90;99.90
10129;DHT22;5104;50.720;7.044;2022-10-16T01:46:30;12.90;99.90
10129;DHT22;5104;50.720;7.044;2022-10-16T01:48:59;12.80;99.90
10129;DHT22;5104;50.720;7.044;2022-10-16T01:51:28;12.70;99.90
10129;DHT22;5104;50.720;7.044;2022-10-16T01:53:58;12.70;99.90
10129;DHT22;5104;50.720;7.044;2022-10-16T01:56:27;12.70;99.90
10129;DHT22;5104;50.720;7.044;2022-10-16T01:58:59;12.60;99.90
10129;DHT22;5104;50.720;7.044;2022-10-16T02:01:30;12.70;99.90
10129;DHT22;5104;50.720;7.044;2022-10-16T02:04:01;12.70;99.90
10129;DHT22;5104;50.720;7.044;2022-10-16T02:06:30;12.70;99.90
10129;DHT22;5104;50.720;7.044;2022-10-16T02:08:57;12.90;99.90
10129;DHT22;5104;50.720;7.044;2022-10-16T02:11:24;13.00;99.90
10129;DHT22;5104;50.720;7.044;2022-10-16T02:13:54;13.20;99.90
10129;DHT22;5104;50.720;7.044;2022-10-16T02:16:33;13.30;99.90
10129;DHT22;5104;50.720;7.044;2022-10-16T02:19:01;13.40;99.90
10129;DHT22;5104;50.720;7.044;2022-10-16T02:21:30;13.50;99.90
10129;DHT22;5104;50.720;7.044;2022-10-16T02:24:03;13.50;99.90
10129;DHT22;5104;50.720;7.044;2022-10-16T02:26:37;13.60;99.90
10129;DHT22;5104;50.720;7.044;2022-10-16T02:29:10;13.70;99.90
10129;DHT22;5104;50.720;7.044;2022-10-16T02:31:41;13.70;99.90
10129;DHT22;5104;50.720;7.044;2022-10-16T02:34:11;13.80;99.90
10129;DHT22;5104;50.720;7.044;2022-10-16T02:36:39;13.80;99.90
10129;DHT22;5104;50.720;7.044;2022-10-16T02:39:07;13.90;99.90
10129;DHT22;5104;50.720;7.044;2022-10-16T02:41:34;13.90;99.90
10129;DHT22;5104;50.720;7.044;2022-10-16T02:44:01;14.00;99.90
10129;DHT22;5104;50.720;7.044;2022-10-16T02:46:28;14.00;99.90
10129;DHT22;5104;50.720;7.044;2022-10-16T02:48:56;14.10;99.90
10129;DHT22;5104;50.720;7.044;2022-10-16T02:51:23;14.10;99.90
10129;DHT22;5104;50.720;7.044;2022-10-16T02:53:49;14.10;99.90
10129;DHT22;5104;50.720;7.044;2022-10-16T02:56:16;14.20;99.90
10129;DHT22;5104;50.720;7.044;2022-10-16T02:58:43;14.10;99.90
10129;DHT22;5104;50.720;7.044;2022-10-16T03:01:10;14.20;99.90
10129;DHT22;5104;50.720;7.044;2022-10-16T03:03:38;14.20;99.90
10129;DHT22;5104;50.720;7.044;2022-10-16T03:06:06;14.20;99.90
10129;DHT22;5104;50.720;7.044;2022-10-16T03:08:33;14.20;99.90
10129;DHT22;5104;50.720;7.044;2022-10-16T03:10:59;14.30;99.90
10129;DHT22;5104;50.720;7.044;2022-10-16T03:13:26;14.30;99.90
10129;DHT22;5104;50.720;7.044;2022-10-16T03:15:53;14.30;99.90
10129;DHT22;5104;50.720;7.044;2022-10-16T03:18:20;14.30;99.90
10129;DHT22;5104;50.720;7.044;2022-10-16T03:20:47;14.30;99.90
10129;DHT22;5104;50.720;7.044;2022-10-16T03:23:15;14.30;99.90
10129;DHT22;5104;50.720;7.044;2022-10-16T03:25:41;14.40;99.90
10129;DHT22;5104;50.720;7.044;2022-10-16T03:28:08;14.40;99.90
10129;DHT22;5104;50.720;7.044;2022-10-16T03:30:35;14.40;99.90
10129;DHT22;5104;50.720;7.044;2022-10-16T03:33:02;14.40;99.90
10129;DHT22;5104;50.720;7.044;2022-10-16T03:35:29;14.40;99.90
10129;DHT22;5104;50.720;7.044;2022-10-16T03:37:56;14.40;99.90
10129;DHT22;5104;50.720;7.044;2022-10-16T03:40:24;14.50;99.90
10129;DHT22;5104;50.720;7.044;2022-10-16T03:42:51;14.50;99.90
10129;DHT22;5104;50.720;7.044;2022-10-16T03:45:19;14.50;99.90
10129;DHT22;5104;50.720;7.044;2022-10-16T03:47:46;14.40;99.90
10129;DHT22;5104;50.720;7.044;2022-10-16T03:50:14;14.50;99.90
10129;DHT22;5104;50.720;7.044;2022-10-16T03:52:41;14.50;99.90
10129;DHT22;5104;50.720;7.044;2022-10-16T03:55:08;14.50;99.90
10129;DHT22;5104;50.720;7.044;2022-10-16T03:57:36;14.50;99.90
10129;DHT22;5104;50.720;7.044;2022-10-16T04:00:03;14.60;99.90
10129;DHT22;5104;50.720;7.044;2022-10-16T04:02:30;14.60;99.90
10129;DHT22;5104;50.720;7.044;2022-10-16T04:04:57;14.60;99.90
10129;DHT22;5104;50.720;7.044;2022-10-16T04:07:24;14.60;99.90
10129;DHT22;5104;50.720;7.044;2022-10-16T04:09:51;14.60;99.90
10129;DHT22;5104;50.720;7.044;2022-10-16T04:12:18;14.60;99.90
10129;DHT22;5104;50.720;7.044;2022-10-16T04:14:46;14.60;99.90
10129;DHT22;5104;50.720;7.044;2022-10-16T04:17:13;14.60;99.90
10129;DHT22;5104;50.720;7.044;2022-10-16T04:19:40;14.60;99.90
10129;DHT22;5104;50.720;7.044;2022-10-16T04:22:07;14.60;99.90
10129;DHT22;5104;50.720;7.044;2022-10-16T04:24:34;14.60;99.90
10129;DHT22;5104;50.720;7.044;2022-10-16T04:27:00;14.60;99.90
10129;DHT22;5104;50.720;7.044;2022-10-16T04:29:27;14.60;99.90
10129;DHT22;5104;50.720;7.044;2022-10-16T04:31:55;14.60;99.90
10129;DHT22;5104;50.720;7.044;2022-10-16T04:34:22;14.50;99.90
10129;DHT22;5104;50.720;7.044;2022-10-16T04:36:49;14.50;99.90
10129;DHT22;5104;50.720;7.044;2022-10-16T04:39:16;14.50;99.90
10129;DHT22;5104;50.720;7.044;2022-10-16T04:41:43;14.50;99.90
10129;DHT22;5104;50.720;7.044;2022-10-16T04:44:10;14.40;99.90
10129;DHT22;5104;50.720;7.044;2022-10-16T04:46:36;14.40;99.90
10129;DHT22;5104;50.720;7.044;2022-10-16T04:49:05;14.30;99.90
10129;DHT22;5104;50.720;7.044;2022-10-16T04:51:31;14.30;99.90
10129;DHT22;5104;50.720;7.044;2022-10-16T04:53:59;14.30;99.90
10129;DHT22;5104;50.720;7.044;2022-10-16T04:56:25;14.30;99.90
10129;DHT22;5104;50.720;7.044;2022-10-16T04:58:52;14.30;99.90
10129;DHT22;5104;50.720;7.044;2022-10-16T05:01:19;14.20;99.90
10129;DHT22;5104;50.720;7.044;2022-10-16T05:03:46;14.20;99.90
10129;DHT22;5104;50.720;7.044;2022-10-16T05:06:14;14.10;99.90
10129;DHT22;5104;50.720;7.044;2022-10-16T05:08:40;14.10;99.90
10129;DHT22;5104;50.720;7.044;2022-10-16T05:11:07;14.00;99.90
10129;DHT22;5104;50.720;7.044;2022-10-16T05:13:34;14.00;99.90
10129;DHT22;5104;50.720;7.044;2022-10-16T05:16:01;14.00;99.90
10129;DHT22;5104;50.720;7.044;2022-10-16T05:18:28;14.00;99.90
10129;DHT22;5104;50.720;7.044;2022-10-16T05:20:54;14.00;99.90
10129;DHT22;5104;50.720;7.044;2022-10-16T05:23:23;13.90;99.90
10129;DHT22;5104;50.720;7.044;2022-10-16T05:25:53;13.90;99.90
10129;DHT22;5104;50.720;7.044;2022-10-16T05:28:20;13.80;99.90
10129;DHT22;5104;50.720;7.044;2022-10-16T05:30:47;13.80;99.90
10129;DHT22;5104;50.720;7.044;2022-10-16T05:33:14;13.80;99.90
10129;DHT22;5104;50.720;7.044;2022-10-16T05:35:41;13.90;99.90
10129;DHT22;5104;50.720;7.044;2022-10-16T05:38:09;13.90;99.90
10129;DHT22;5104;50.720;7.044;2022-10-16T05:40:38;13.90;99.90
10129;DHT22;5104;50.720;7.044;2022-10-16T05:43:05;13.90;99.90
10129;DHT22;5104;50.720;7.044;2022-10-16T05:45:32;14.00;99.90
10129;DHT22;5104;50.720;7.044;2022-10-16T05:48:00;14.00;99.90
10129;DHT22;5104;50.720;7.044;2022-10-16T05:50:27;14.00;99.90
10129;DHT22;5104;50.720;7.044;2022-10-16T05:52:54;14.00;99.90
10129;DHT22;5104;50.720;7.044;2022-10-16T05:55:20;14.00;99.90
10129;DHT22;5104;50.720;7.044;2022-10-16T05:57:49;14.00;99.90
10129;DHT22;5104;50.720;7.044;2022-10-16T06:00:16;14.10;99.90
10129;DHT22;5104;50.720;7.044;2022-10-16T06:02:42;14.00;99.90
10129;DHT22;5104;50.720;7.044;2022-10-16T06:05:09;14.00;99.90
10129;DHT22;5104;50.720;7.044;2022-10-16T06:07:36;14.00;99.90
10129;DHT22;5104;50.720;7.044;2022-10-16T06:10:04;14.00;99.90
10129;DHT22;5104;50.720;7.044;2022-10-16T06:12:31;13.90;99.90
10129;DHT22;5104;50.720;7.044;2022-10-16T06:14:59;13.90;99.90
10129;DHT22;5104;50.720;7.044;2022-10-16T06:17:26;13.90;99.90
10129;DHT22;5104;50.720;7.044;2022-10-16T06:19:53;13.90;99.90
10129;DHT22;5104;50.720;7.044;2022-10-16T06:22:20;13.90;99.90
10129;DHT22;5104;50.720;7.044;2022-10-16T06:24:46;13.90;99.90
10129;DHT22;5104;50.720;7.044;2022-10-16T06:27:15;13.80;99.90
10129;DHT22;5104;50.720;7.044;2022-10-16T06:29:42;13.80;99.90
10129;DHT22;5104;50.720;7.044;2022-10-16T06:32:11;13.80;99.90
10129;DHT22;5104;50.720;7.044;2022-10-16T06:34:38;13.70;99.90
10129;DHT22;5104;50.720;7.044;2022-10-16T06:37:06;13.70;99.90
10129;DHT22;5104;50.720;7.044;2022-10-16T06:39:33;13.70;99.90
10129;DHT22;5104;50.720;7.044;2022-10-16T06:42:00;13.70;99.90
10129;DHT22;5104;50.720;7.044;2022-10-16T06:44:27;13.70;99.90
10129;DHT22;5104;50.720;7.044;2022-10-16T06:46:53;13.70;99.90
10129;DHT22;5104;50.720;7.044;2022-10-16T06:49:22;13.80;99.90
10129;DHT22;5104;50.720;7.044;2022-10-16T06:51:49;13.90;99.90
10129;DHT22;5104;50.720;7.044;2022-10-16T06:54:16;13.90;99.90
10129;DHT22;5104;50.720;7.044;2022-10-16T06:56:43;14.00;99.90
10129;DHT22;5104;50.720;7.044;2022-10-16T06:59:10;14.00;99.90
10129;DHT22;5104;50.720;7.044;2022-10-16T07:01:37;14.10;99.90
10129;DHT22;5104;50.720;7.044;2022-10-16T07:04:03;14.20;99.90
10129;DHT22;5104;50.720;7.044;2022-10-16T07:06:33;14.20;99.90
10129;DHT22;5104;50.720;7.044;2022-10-16T07:09:06;14.20;99.90
10129;DHT22;5104;50.720;7.044;2022-10-16T07:11:33;14.20;99.90
10129;DHT22;5104;50.720;7.044;2022-10-16T07:14:00;14.10;99.90
10129;DHT22;5104;50.720;7.044;2022-10-16T07:16:28;14.10;99.90
10129;DHT22;5104;50.720;7.044;2022-10-16T07:18:56;14.20;99.90
10129;DHT22;5104;50.720;7.044;2022-10-16T07:21:25;14.30;99.90
10129;DHT22;5104;50.720;7.044;2022-10-16T07:23:55;14.40;99.90
10129;DHT22;5104;50.720;7.044;2022-10-16T07:26:23;14.50;99.90
10129;DHT22;5104;50.720;7.044;2022-10-16T07:28:50;14.60;99.90
10129;DHT22;5104;50.720;7.044;2022-10-16T07:31:19;14.70;99.90
10129;DHT22;5104;50.720;7.044;2022-10-16T07:33:47;14.70;99.90
10129;DHT22;5104;50.720;7.044;2022-10-16T07:36:15;14.70;99.90
10129;DHT22;5104;50.720;7.044;2022-10-16T07:38:42;14.80;99.90
10129;DHT22;5104;50.720;7.044;2022-10-16T07:41:12;14.90;99.90
10129;DHT22;5104;50.720;7.044;2022-10-16T07:43:39;14.90;99.90
10129;DHT22;5104;50.720;7.044;2022-10-16T07:46:06;15.00;99.90
10129;DHT22;5104;50.720;7.044;2022-10-16T07:48:34;15.00;99.90
10129;DHT22;5104;50.720;7.044;2022-10-16T07:51:02;15.00;99.90
10129;DHT22;5104;50.720;7.044;2022-10-16T07:53:29;15.00;99.90
10129;DHT22;5104;50.720;7.044;2022-10-16T07:55:57;15.00;99.90
10129;DHT22;5104;50.720;7.044;2022-10-16T07:58:26;15.00;99.90
10129;DHT22;5104;50.720;7.044;2022-10-16T08:00:53;14.90;99.90
10129;DHT22;5104;50.720;7.044;2022-10-16T08:03:20;14.90;99.90
10129;DHT22;5104;50.720;7.044;2022-10-16T08:05:47;14.90;99.90
10129;DHT22;5104;50.720;7.044;2022-10-16T08:08:15;14.80;99.90
10129;DHT22;5104;50.720;7.044;2022-10-16T08:10:42;14.80;99.90
10129;DHT22;5104;50.720;7.044;2022-10-16T08:13:09;14.70;99.90
10129;DHT22;5104;50.720;7.044;2022-10-16T08:15:37;14.70;99.90
10129;DHT22;5104;50.720;7.044;2022-10-16T08:18:05;14.70;99.90
10129;DHT22;5104;50.720;7.044;2022-10-16T08:20:33;14.70;99.90
10129;DHT22;5104;50.720;7.044;2022-10-16T08:23:00;14.70;99.90
10129;DHT22;5104;50.720;7.044;2022-10-16T08:25:27;14.80;99.90
10129;DHT22;5104;50.720;7.044;2022-10-16T08:27:55;14.90;99.90
10129;DHT22;5104;50.720;7.044;2022-10-16T08:30:23;14.90;99.90
10129;DHT22;5104;50.720;7.044;2022-10-16T08:32:51;15.00;99.90
10129;DHT22;5104;50.720;7.044;2022-10-16T08:35:18;15.20;99.90
10129;DHT22;5104;50.720;7.044;2022-10-16T08:37:45;15.40;99.90
10129;DHT22;5104;50.720;7.044;2022-10-16T08:40:18;15.70;99.90
10129;DHT22;5104;50.720;7.044;2022-10-16T08:43:01;15.90;99.90
10129;DHT22;5104;50.720;7.044;2022-10-16T08:45:37;16.00;99.90
10129;DHT22;5104;50.720;7.044;2022-10-16T08:48:17;16.00;99.90
10129;DHT22;5104;50.720;7.044;2022-10-16T08:50:45;16.00;99.90
10129;DHT22;5104;50.720;7.044;2022-10-16T08:53:18;16.10;99.90
10129;DHT22;5104;50.720;7.044;2022-10-16T08:55:50;16.10;99.90
10129;DHT22;5104;50.720;7.044;2022-10-16T08:58:19;16.10;99.90
10129;DHT22;5104;50.720;7.044;2022-10-16T09:00:48;16.10;99.90
10129;DHT22;5104;50.720;7.044;2022-10-16T09:03:33;16.20;99.90
10129;DHT22;5104;50.720;7.044;2022-10-16T09:06:16;16.30;99.90
10129;DHT22;5104;50.720;7.044;2022-10-16T09:08:52;16.50;99.90
10129;DHT22;5104;50.720;7.044;2022-10-16T09:11:30;16.70;99.90
10129;DHT22;5104;50.720;7.044;2022-10-16T09:14:03;16.90;99.90
10129;DHT22;5104;50.720;7.044;2022-10-16T09:16:35;17.10;99.90
10129;DHT22;5104;50.720;7.044;2022-10-16T09:19:12;17.10;99.90
10129;DHT22;5104;50.720;7.044;2022-10-16T09:21:41;17.30;99.90
10129;DHT22;5104;50.720;7.044;2022-10-16T09:24:11;17.60;94.20
10129;DHT22;5104;50.720;7.044;2022-10-16T09:26:40;17.70;49.50
10129;DHT22;5104;50.720;7.044;2022-10-16T09:29:08;17.90;66.80
10129;DHT22;5104;50.720;7.044;2022-10-16T09:31:36;18.00;1.00
10129;DHT22;5104;50.720;7.044;2022-10-16T09:34:05;18.10;1.00
10129;DHT22;5104;50.720;7.044;2022-10-16T09:36:39;18.00;1.00
10129;DHT22;5104;50.720;7.044;2022-10-16T09:39:08;18.10;16.80
10129;DHT22;5104;50.720;7.044;2022-10-16T09:41:35;18.20;1.00
10129;DHT22;5104;50.720;7.044;2022-10-16T09:44:14;18.30;1.00
10129;DHT22;5104;50.720;7.044;2022-10-16T09:46:43;18.30;1.00
10129;DHT22;5104;50.720;7.044;2022-10-16T09:49:21;18.50;10.70
10129;DHT22;5104;50.720;7.044;2022-10-16T09:51:49;18.50;25.10
10129;DHT22;5104;50.720;7.044;2022-10-16T09:54:19;18.40;1.00
10129;DHT22;5104;50.720;7.044;2022-10-16T09:56:46;18.40;20.70
10129;DHT22;5104;50.720;7.044;2022-10-16T09:59:18;18.40;6.50
10129;DHT22;5104;50.720;7.044;2022-10-16T10:01:48;18.50;21.20
10129;DHT22;5104;50.720;7.044;2022-10-16T10:04:16;18.60;95.70
10129;DHT22;5104;50.720;7.044;2022-10-16T10:06:46;18.80;94.70
10129;DHT22;5104;50.720;7.044;2022-10-16T10:09:19;19.00;92.40
10129;DHT22;5104;50.720;7.044;2022-10-16T10:11:49;19.10;93.10
10129;DHT22;5104;50.720;7.044;2022-10-16T10:14:28;19.20;90.30
10129;DHT22;5104;50.720;7.044;2022-10-16T10:17:17;19.30;86.60
10129;DHT22;5104;50.720;7.044;2022-10-16T10:19:53;19.20;88.30
10129;DHT22;5104;50.720;7.044;2022-10-16T10:22:28;19.30;89.60
10129;DHT22;5104;50.720;7.044;2022-10-16T10:24:57;19.30;80.80
10129;DHT22;5104;50.720;7.044;2022-10-16T10:27:32;19.40;83.80
10129;DHT22;5104;50.720;7.044;2022-10-16T10:30:03;19.40;76.60
10129;DHT22;5104;50.720;7.044;2022-10-16T10:32:37;19.60;82.60
10129;DHT22;5104;50.720;7.044;2022-10-16T10:35:14;19.90;78.20
10129;DHT22;5104;50.720;7.044;2022-10-16T10:38:00;20.10;74.80
10129;DHT22;5104;50.720;7.044;2022-10-16T10:40:39;20.50;73.30
10129;DHT22;5104;50.720;7.044;2022-10-16T10:43:13;20.70;70.60
10129;DHT22;5104;50.720;7.044;2022-10-16T10:45:46;21.00;69.90
10129;DHT22;5104;50.720;7.044;2022-10-16T10:48:23;21.00;66.40
10129;DHT22;5104;50.720;7.044;2022-10-16T10:50:55;21.00;62.30
10129;DHT22;5104;50.720;7.044;2022-10-16T10:53:33;20.70;62.00
10129;DHT22;5104;50.720;7.044;2022-10-16T10:56:07;20.80;63.40
10129;DHT22;5104;50.720;7.044;2022-10-16T10:59:07;20.50;68.30
10129;DHT22;5104;50.720;7.044;2022-10-16T11:01:40;20.30;68.70
10129;DHT22;5104;50.720;7.044;2022-10-16T11:04:34;20.40;69.70
10129;DHT22;5104;50.720;7.044;2022-10-16T11:07:04;20.40;68.30
10129;DHT22;5104;50.720;7.044;2022-10-16T11:09:36;20.70;66.70
10129;DHT22;5104;50.720;7.044;2022-10-16T11:12:09;20.90;65.00
10129;DHT22;5104;50.720;7.044;2022-10-16T11:14:41;21.00;63.90
10129;DHT22;5104;50.720;7.044;2022-10-16T11:17:12;21.00;62.50
10129;DHT22;5104;50.720;7.044;2022-10-16T11:19:42;20.90;57.50
10129;DHT22;5104;50.720;7.044;2022-10-16T11:22:16;20.80;58.70
10129;DHT22;5104;50.720;7.044;2022-10-16T11:24:51;20.70;59.40
10129;DHT22;5104;50.720;7.044;2022-10-16T11:27:25;20.50;57.20
10129;DHT22;5104;50.720;7.044;2022-10-16T11:29:56;20.20;60.80
10129;DHT22;5104;50.720;7.044;2022-10-16T11:32:28;20.00;62.90
10129;DHT22;5104;50.720;7.044;2022-10-16T11:35:02;19.90;62.90
10129;DHT22;5104;50.720;7.044;2022-10-16T11:37:36;20.00;61.10
10129;DHT22;5104;50.720;7.044;2022-10-16T11:40:17;19.90;70.10
10129;DHT22;5104;50.720;7.044;2022-10-16T11:42:50;19.90;71.20
10129;DHT22;5104;50.720;7.044;2022-10-16T11:45:24;20.00;72.50
10129;DHT22;5104;50.720;7.044;2022-10-16T11:48:00;20.00;75.80
10129;DHT22;5104;50.720;7.044;2022-10-16T11:50:31;20.00;73.70
10129;DHT22;5104;50.720;7.044;2022-10-16T11:53:03;20.00;75.40
10129;DHT22;5104;50.720;7.044;2022-10-16T11:55:34;20.10;77.90
10129;DHT22;5104;50.720;7.044;2022-10-16T11:58:06;20.30;75.60
10129;DHT22;5104;50.720;7.044;2022-10-16T12:00:38;20.50;74.00
10129;DHT22;5104;50.720;7.044;2022-10-16T12:03:12;20.70;70.80
10129;DHT22;5104;50.720;7.044;2022-10-16T12:05:52;20.80;71.70
10129;DHT22;5104;50.720;7.044;2022-10-16T12:08:21;20.80;63.20
10129;DHT22;5104;50.720;7.044;2022-10-16T12:10:50;20.80;65.70
10129;DHT22;5104;50.720;7.044;2022-10-16T12:13:29;20.80;59.80
10129;DHT22;5104;50.720;7.044;2022-10-16T12:16:05;20.90;60.20
10129;DHT22;5104;50.720;7.044;2022-10-16T12:18:32;21.00;58.70
10129;DHT22;5104;50.720;7.044;2022-10-16T12:21:00;21.00;65.30
10129;DHT22;5104;50.720;7.044;2022-10-16T12:23:32;21.10;65.70
10129;DHT22;5104;50.720;7.044;2022-10-16T12:26:01;21.30;65.00
10129;DHT22;5104;50.720;7.044;2022-10-16T12:28:29;21.40;63.50
10129;DHT22;5104;50.720;7.044;2022-10-16T12:30:59;21.60;65.50
10129;DHT22;5104;50.720;7.044;2022-10-16T12:33:29;21.80;65.30
10129;DHT22;5104;50.720;7.044;2022-10-16T12:35:57;21.70;63.40
10129;DHT22;5104;50.720;7.044;2022-10-16T12:38:27;21.60;63.10
10129;DHT22;5104;50.720;7.044;2022-10-16T12:40:58;21.50;67.90
10129;DHT22;5104;50.720;7.044;2022-10-16T12:43:38;21.40;68.90
10129;DHT22;5104;50.720;7.044;2022-10-16T12:46:22;21.50;69.20
10129;DHT22;5104;50.720;7.044;2022-10-16T12:48:49;21.70;66.60
10129;DHT22;5104;50.720;7.044;2022-10-16T12:51:33;21.40;68.00
10129;DHT22;5104;50.720;7.044;2022-10-16T12:54:02;21.70;67.10
10129;DHT22;5104;50.720;7.044;2022-10-16T12:56:37;21.70;66.60
10129;DHT22;5104;50.720;7.044;2022-10-16T12:59:17;21.90;68.40
10129;DHT22;5104;50.720;7.044;2022-10-16T13:01:56;22.00;68.80
10129;DHT22;5104;50.720;7.044;2022-10-16T13:04:49;22.00;63.40
10129;DHT22;5104;50.720;7.044;2022-10-16T13:07:29;21.90;64.70
10129;DHT22;5104;50.720;7.044;2022-10-16T13:10:10;21.60;65.40
10129;DHT22;5104;50.720;7.044;2022-10-16T13:15:52;21.70;66.10
10129;DHT22;5104;50.720;7.044;2022-10-16T13:18:29;21.60;70.70
10129;DHT22;5104;50.720;7.044;2022-10-16T13:21:09;21.60;67.00
10129;DHT22;5104;50.720;7.044;2022-10-16T13:23:48;21.50;67.40
10129;DHT22;5104;50.720;7.044;2022-10-16T13:26:26;21.50;67.60
10129;DHT22;5104;50.720;7.044;2022-10-16T13:28:59;21.70;65.40
10129;DHT22;5104;50.720;7.044;2022-10-16T13:31:28;21.80;64.90
10129;DHT22;5104;50.720;7.044;2022-10-16T13:33:57;22.00;62.00
10129;DHT22;5104;50.720;7.044;2022-10-16T13:36:27;22.00;61.70
10129;DHT22;5104;50.720;7.044;2022-10-16T13:39:11;21.90;62.50
10129;DHT22;5104;50.720;7.044;2022-10-16T13:41:38;21.80;62.30
10129;DHT22;5104;50.720;7.044;2022-10-16T13:44:14;21.70;64.50
10129;DHT22;5104;50.720;7.044;2022-10-16T13:46:43;21.60;66.80
10129;DHT22;5104;50.720;7.044;2022-10-16T13:49:15;21.30;67.40
10129;DHT22;5104;50.720;7.044;2022-10-16T13:51:54;21.10;71.80
10129;DHT22;5104;50.720;7.044;2022-10-16T13:54:21;20.90;72.80
10129;DHT22;5104;50.720;7.044;2022-10-16T13:56:48;20.80;76.30
10129;DHT22;5104;50.720;7.044;2022-10-16T13:59:25;20.80;75.90
10129;DHT22;5104;50.720;7.044;2022-10-16T14:01:55;21.00;75.90
10129;DHT22;5104;50.720;7.044;2022-10-16T14:04:23;20.80;76.60
10129;DHT22;5104;50.720;7.044;2022-10-16T14:06:51;20.80;78.10
10129;DHT22;5104;50.720;7.044;2022-10-16T14:09:22;20.80;77.90
10129;DHT22;5104;50.720;7.044;2022-10-16T14:11:51;20.70;77.00
10129;DHT22;5104;50.720;7.044;2022-10-16T14:14:19;20.70;77.90
10129;DHT22;5104;50.720;7.044;2022-10-16T14:16:46;20.50;79.50
10129;DHT22;5104;50.720;7.044;2022-10-16T14:19:19;20.60;83.80
10129;DHT22;5104;50.720;7.044;2022-10-16T14:21:47;20.70;83.60
10129;DHT22;5104;50.720;7.044;2022-10-16T14:24:26;20.80;86.40
10129;DHT22;5104;50.720;7.044;2022-10-16T14:26:54;21.00;83.70
10129;DHT22;5104;50.720;7.044;2022-10-16T14:29:23;21.00;86.80
10129;DHT22;5104;50.720;7.044;2022-10-16T14:31:59;20.90;83.60
10129;DHT22;5104;50.720;7.044;2022-10-16T14:34:29;20.80;83.20
10129;DHT22;5104;50.720;7.044;2022-10-16T14:37:00;20.80;83.70
10129;DHT22;5104;50.720;7.044;2022-10-16T14:39:33;20.90;84.10
10129;DHT22;5104;50.720;7.044;2022-10-16T14:42:00;20.90;84.50
10129;DHT22;5104;50.720;7.044;2022-10-16T14:44:29;21.00;84.90
10129;DHT22;5104;50.720;7.044;2022-10-16T14:46:58;21.00;82.60
10129;DHT22;5104;50.720;7.044;2022-10-16T14:49:25;20.80;84.10
10129;DHT22;5104;50.720;7.044;2022-10-16T14:51:55;20.80;88.40
10129;DHT22;5104;50.720;7.044;2022-10-16T14:54:22;20.70;91.20
10129;DHT22;5104;50.720;7.044;2022-10-16T14:56:51;20.70;88.70
10129;DHT22;5104;50.720;7.044;2022-10-16T14:59:22;20.50;90.20
10129;DHT22;5104;50.720;7.044;2022-10-16T15:01:51;20.50;91.10
10129;DHT22;5104;50.720;7.044;2022-10-16T15:04:18;20.50;91.50
10129;DHT22;5104;50.720;7.044;2022-10-16T15:06:45;20.40;91.70
10129;DHT22;5104;50.720;7.044;2022-10-16T15:09:13;20.30;92.90
10129;DHT22;5104;50.720;7.044;2022-10-16T15:11:41;20.30;93.30
10129;DHT22;5104;50.720;7.044;2022-10-16T15:14:11;20.20;92.40
10129;DHT22;5104;50.720;7.044;2022-10-16T15:16:38;20.10;93.50
10129;DHT22;5104;50.720;7.044;2022-10-16T15:19:05;20.00;95.50
10129;DHT22;5104;50.720;7.044;2022-10-16T15:21:32;19.90;94.40
10129;DHT22;5104;50.720;7.044;2022-10-16T15:24:00;19.70;96.40
10129;DHT22;5104;50.720;7.044;2022-10-16T15:26:29;19.60;99.20
10129;DHT22;5104;50.720;7.044;2022-10-16T15:28:56;19.50;99.90
10129;DHT22;5104;50.720;7.044;2022-10-16T15:31:23;19.40;99.90
10129;DHT22;5104;50.720;7.044;2022-10-16T15:33:53;19.40;99.90
10129;DHT22;5104;50.720;7.044;2022-10-16T15:36:27;19.30;99.90
10129;DHT22;5104;50.720;7.044;2022-10-16T15:38:56;19.20;99.90
10129;DHT22;5104;50.720;7.044;2022-10-16T15:41:25;19.10;99.90
10129;DHT22;5104;50.720;7.044;2022-10-16T15:43:53;19.00;99.90
10129;DHT22;5104;50.720;7.044;2022-10-16T15:46:21;18.90;99.90
10129;DHT22;5104;50.720;7.044;2022-10-16T15:48:49;18.90;99.90
10129;DHT22;5104;50.720;7.044;2022-10-16T15:51:17;18.80;99.90
10129;DHT22;5104;50.720;7.044;2022-10-16T15:53:44;18.80;99.90
10129;DHT22;5104;50.720;7.044;2022-10-16T15:56:12;18.70;99.90
10129;DHT22;5104;50.720;7.044;2022-10-16T15:58:41;18.70;99.90
10129;DHT22;5104;50.720;7.044;2022-10-16T16:01:09;18.60;99.90
10129;DHT22;5104;50.720;7.044;2022-10-16T16:03:37;18.60;99.90
10129;DHT22;5104;50.720;7.044;2022-10-16T16:06:09;18.60;99.90
10129;DHT22;5104;50.720;7.044;2022-10-16T16:08:37;18.50;99.90